sensor_id;sensor_type;location;lat;lon;timestamp;temperature;humidity
11221;DHT22;8517;53.546;10.104;2023-07-31T00:00:02;17.30;99.90
11221;DHT22;8517;53.546;10.104;2023-07-31T00:02:28;17.30;99.90
11221;DHT22;8517;53.546;10.104;2023-07-31T00:04:57;17.30;99.90
11221;DHT22;8517;53.546;10.104;2023-07-31T00:07:23;17.30;99.90
11221;DHT22;8517;53.546;10.104;2023-07-31T00:09:50;17.30;99.90
11221;DHT22;8517;53.546;10.104;2023-07-31T00:12:19;17.30;99.90
11221;DHT22;8517;53.546;10.104;2023-07-31T00:14:45;17.30;99.90
11221;DHT22;8517;53.546;10.104;2023-07-31T00:17:12;17.20;99.90
11221;DHT22;8517;53.546;10.104;2023-07-31T00:19:39;17.20;99.90
11221;DHT22;8517;53.546;10.104;2023-07-31T00:22:07;17.20;99.90
11221;DHT22;8517;53.546;10.104;2023-07-31T00:24:34;17.20;99.90
11221;DHT22;8517;53.546;10.104;2023-07-31T00:27:00;17.30;99.90
11221;DHT22;8517;53.546;10.104;2023-07-31T00:29:27;17.20;99.90
11221;DHT22;8517;53.546;10.104;2023-07-31T00:31:54;17.20;99.90
11221;DHT22;8517;53.546;10.104;2023-07-31T00:34:21;17.20;99.90
11221;DHT22;8517;53.546;10.104;2023-07-31T00:36:47;17.20;99.90
11221;DHT22;8517;53.546;10.104;2023-07-31T00:39:16;17.30;99.90
11221;DHT22;8517;53.546;10.104;2023-07-31T00:41:42;17.20;99.90
11221;DHT22;8517;53.546;10.104;2023-07-31T00:44:09;17.30;99.90
11221;DHT22;8517;53.546;10.104;2023-07-31T00:46:36;17.30;99.90
11221;DHT22;8517;53.546;10.104;2023-07-31T00:49:03;17.30;99.90
11221;DHT22;8517;53.546;10.104;2023-07-31T00:51:30;17.30;99.90
11221;DHT22;8517;53.546;10.104;2023-07-31T00:53:58;17.30;99.90
11221;DHT22;8517;53.546;10.104;2023-07-31T00:56:26;17.30;99.90
11221;DHT22;8517;53.546;10.104;2023-07-31T00:58:54;17.40;99.90
11221;DHT22;8517;53.546;10.104;2023-07-31T01:01:21;17.40;99.90
11221;DHT22;8517;53.546;10.104;2023-07-31T01:03:49;17.40;99.90
11221;DHT22;8517;53.546;10.104;2023-07-31T01:06:24;17.40;99.90
11221;DHT22;8517;53.546;10.104;2023-07-31T01:08:59;17.40;99.90
11221;DHT22;8517;53.546;10.104;2023-07-31T01:11:31;17.40;99.90
11221;DHT22;8517;53.546;10.104;2023-07-31T01:13:58;17.40;99.90
11221;DHT22;8517;53.546;10.104;2023-07-31T01:16:26;17.40;99.90
11221;DHT22;8517;53.546;10.104;2023-07-31T01:18:53;17.40;99.90
11221;DHT22;8517;53.546;10.104;2023-07-31T01:21:33;17.40;99.90
11221;DHT22;8517;53.546;10.104;2023-07-31T01:24:22;17.30;99.90
11221;DHT22;8517;53.546;10.104;2023-07-31T01:26:56;17.30;99.90
11221;DHT22;8517;53.546;10.104;2023-07-31T01:29:29;17.40;99.90
11221;DHT22;8517;53.546;10.104;2023-07-31T01:32:01;17.40;99.90
11221;DHT22;8517;53.546;10.104;2023-07-31T01:34:29;17.40;99.90
11221;DHT22;8517;53.546;10.104;2023-07-31T01:36:56;17.40;99.90
11221;DHT22;8517;53.546;10.104;2023-07-31T01:39:23;17.30;99.90
11221;DHT22;8517;53.546;10.104;2023-07-31T01:41:52;17.30;99.90
11221;DHT22;8517;53.546;10.104;2023-07-31T01:44:18;17.30;99.90
11221;DHT22;8517;53.546;10.104;2023-07-31T01:46:45;17.30;99.90
11221;DHT22;8517;53.546;10.104;2023-07-31T01:49:12;17.40;99.90
11221;DHT22;8517;53.546;10.104;2023-07-31T01:51:39;17.40;99.90
11221;DHT22;8517;53.546;10.104;2023-07-31T01:54:06;17.40;99.90
11221;DHT22;8517;53.546;10.104;2023-07-31T01:56:32;17.40;99.90
11221;DHT22;8517;53.546;10.104;2023-07-31T01:59:00;17.40;99.90
11221;DHT22;8517;53.546;10.104;2023-07-31T02:01:27;17.40;99.90
11221;DHT22;8517;53.546;10.104;2023-07-31T02:03:54;17.40;99.90
11221;DHT22;8517;53.546;10.104;2023-07-31T02:06:22;17.40;99.90
11221;DHT22;8517;53.546;10.104;2023-07-31T02:08:49;17.40;99.90
11221;DHT22;8517;53.546;10.104;2023-07-31T02:11:15;17.40;99.90
11221;DHT22;8517;53.546;10.104;2023-07-31T02:13:42;17.40;99.90
11221;DHT22;8517;53.546;10.104;2023-07-31T02:16:10;17.40;99.90
11221;DHT22;8517;53.546;10.104;2023-07-31T02:18:37;17.40;99.90
11221;DHT22;8517;53.546;10.104;2023-07-31T02:21:04;17.40;99.90
11221;DHT22;8517;53.546;10.104;2023-07-31T02:23:30;17.40;99.90
11221;DHT22;8517;53.546;10.104;2023-07-31T02:25:57;17.40;99.90
11221;DHT22;8517;53.546;10.104;2023-07-31T02:28:24;17.40;99.90
11221;DHT22;8517;53.546;10.104;2023-07-31T02:30:51;17.40;99.90
11221;DHT22;8517;53.546;10.104;2023-07-31T02:33:19;17.50;99.90
11221;DHT22;8517;53.546;10.104;2023-07-31T02:35:46;17.50;99.90
11221;DHT22;8517;53.546;10.104;2023-07-31T02:38:13;17.50;99.90
11221;DHT22;8517;53.546;10.104;2023-07-31T02:40:40;17.50;99.90
11221;DHT22;8517;53.546;10.104;2023-07-31T02:43:06;17.50;99.90
11221;DHT22;8517;53.546;10.104;2023-07-31T02:45:34;17.60;99.90
11221;DHT22;8517;53.546;10.104;2023-07-31T02:48:00;17.60;99.90
11221;DHT22;8517;53.546;10.104;2023-07-31T02:50:28;17.60;99.90
11221;DHT22;8517;53.546;10.104;2023-07-31T02:52:55;17.60;99.90
11221;DHT22;8517;53.546;10.104;2023-07-31T02:55:22;17.60;99.90
11221;DHT22;8517;53.546;10.104;2023-07-31T02:57:49;17.60;99.90
11221;DHT22;8517;53.546;10.104;2023-07-31T03:00:17;17.60;99.90
11221;DHT22;8517;53.546;10.104;2023-07-31T03:02:44;17.60;99.90
11221;DHT22;8517;53.546;10.104;2023-07-31T03:05:11;17.60;99.90
11221;DHT22;8517;53.546;10.104;2023-07-31T03:07:39;17.60;99.90
11221;DHT22;8517;53.546;10.104;2023-07-31T03:10:07;17.60;99.90
11221;DHT22;8517;53.546;10.104;2023-07-31T03:12:34;17.70;99.90
11221;DHT22;8517;53.546;10.104;2023-07-31T03:15:00;17.70;99.90
11221;DHT22;8517;53.546;10.104;2023-07-31T03:17:27;17.70;99.90
11221;DHT22;8517;53.546;10.104;2023-07-31T03:19:54;17.70;99.90
11221;DHT22;8517;53.546;10.104;2023-07-31T03:22:21;17.70;99.90
11221;DHT22;8517;53.546;10.104;2023-07-31T03:24:49;17.70;99.90
11221;DHT22;8517;53.546;10.104;2023-07-31T03:27:16;17.70;99.90
11221;DHT22;8517;53.546;10.104;2023-07-31T03:29:42;17.80;99.90
11221;DHT22;8517;53.546;10.104;2023-07-31T03:32:09;17.80;99.90
11221;DHT22;8517;53.546;10.104;2023-07-31T03:34:36;17.80;99.90
11221;DHT22;8517;53.546;10.104;2023-07-31T03:37:03;17.80;99.90
11221;DHT22;8517;53.546;10.104;2023-07-31T03:39:31;17.80;99.90
11221;DHT22;8517;53.546;10.104;2023-07-31T03:41:59;17.80;99.90
11221;DHT22;8517;53.546;10.104;2023-07-31T03:44:26;17.90;99.90
11221;DHT22;8517;53.546;10.104;2023-07-31T03:46:52;17.90;99.90
11221;DHT22;8517;53.546;10.104;2023-07-31T03:49:19;17.90;99.90
11221;DHT22;8517;53.546;10.104;2023-07-31T03:51:46;17.90;99.90
11221;DHT22;8517;53.546;10.104;2023-07-31T03:54:13;17.90;99.90
11221;DHT22;8517;53.546;10.104;2023-07-31T03:56:40;17.90;99.90
11221;DHT22;8517;53.546;10.104;2023-07-31T03:59:08;17.90;99.90
11221;DHT22;8517;53.546;10.104;2023-07-31T04:01:35;17.90;99.90
11221;DHT22;8517;53.546;10.104;2023-07-31T04:04:02;17.90;99.90
11221;DHT22;8517;53.546;10.104;2023-07-31T04:06:29;18.00;99.90
11221;DHT22;8517;53.546;10.104;2023-07-31T04:08:55;18.00;99.90
11221;DHT22;8517;53.546;10.104;2023-07-31T04:11:22;18.00;99.90
11221;DHT22;8517;53.546;10.104;2023-07-31T04:13:49;18.00;99.90
11221;DHT22;8517;53.546;10.104;2023-07-31T04:16:17;18.00;99.90
11221;DHT22;8517;53.546;10.104;2023-07-31T04:18:44;18.00;99.90
11221;DHT22;8517;53.546;10.104;2023-07-31T04:21:11;18.00;99.90
11221;DHT22;8517;53.546;10.104;2023-07-31T04:23:38;18.00;99.90
11221;DHT22;8517;53.546;10.104;2023-07-31T04:26:05;18.00;99.90
11221;DHT22;8517;53.546;10.104;2023-07-31T04:28:31;18.00;99.90
11221;DHT22;8517;53.546;10.104;2023-07-31T04:30:58;18.10;99.90
11221;DHT22;8517;53.546;10.104;2023-07-31T04:33:26;18.10;99.90
11221;DHT22;8517;53.546;10.104;2023-07-31T04:35:54;18.10;99.90
11221;DHT22;8517;53.546;10.104;2023-07-31T04:38:21;18.10;99.90
11221;DHT22;8517;53.546;10.104;2023-07-31T04:40:48;18.10;99.90
11221;DHT22;8517;53.546;10.104;2023-07-31T04:43:15;18.10;99.90
11221;DHT22;8517;53.546;10.104;2023-07-31T04:45:44;18.00;99.90
11221;DHT22;8517;53.546;10.104;2023-07-31T04:48:11;18.00;99.90
11221;DHT22;8517;53.546;10.104;2023-07-31T04:50:39;18.00;99.90
11221;DHT22;8517;53.546;10.104;2023-07-31T04:53:06;18.00;99.90
11221;DHT22;8517;53.546;10.104;2023-07-31T04:55:33;18.00;99.90
11221;DHT22;8517;53.546;10.104;2023-07-31T04:57:59;17.90;99.90
11221;DHT22;8517;53.546;10.104;2023-07-31T05:00:26;17.90;99.90
11221;DHT22;8517;53.546;10.104;2023-07-31T05:02:53;17.90;99.90
11221;DHT22;8517;53.546;10.104;2023-07-31T05:05:20;17.90;99.90
11221;DHT22;8517;53.546;10.104;2023-07-31T05:07:48;17.80;99.90
11221;DHT22;8517;53.546;10.104;2023-07-31T05:10:15;17.80;99.90
11221;DHT22;8517;53.546;10.104;2023-07-31T05:12:41;17.70;99.90
11221;DHT22;8517;53.546;10.104;2023-07-31T05:15:09;17.70;99.90
11221;DHT22;8517;53.546;10.104;2023-07-31T05:17:36;17.70;99.90
11221;DHT22;8517;53.546;10.104;2023-07-31T05:20:03;17.70;99.90
11221;DHT22;8517;53.546;10.104;2023-07-31T05:22:30;17.70;99.90
11221;DHT22;8517;53.546;10.104;2023-07-31T05:24:58;17.80;99.90
11221;DHT22;8517;53.546;10.104;2023-07-31T05:27:25;17.80;99.90
11221;DHT22;8517;53.546;10.104;2023-07-31T05:29:52;17.80;99.90
11221;DHT22;8517;53.546;10.104;2023-07-31T05:32:18;17.80;99.90
11221;DHT22;8517;53.546;10.104;2023-07-31T05:34:45;17.70;99.90
11221;DHT22;8517;53.546;10.104;2023-07-31T05:37:12;17.70;99.90
11221;DHT22;8517;53.546;10.104;2023-07-31T05:39:39;17.70;99.90
11221;DHT22;8517;53.546;10.104;2023-07-31T05:42:07;17.70;99.90
11221;DHT22;8517;53.546;10.104;2023-07-31T05:44:34;17.70;99.90
11221;DHT22;8517;53.546;10.104;2023-07-31T05:47:00;17.80;99.90
11221;DHT22;8517;53.546;10.104;2023-07-31T05:49:27;17.80;99.90
11221;DHT22;8517;53.546;10.104;2023-07-31T05:51:54;17.70;99.90
11221;DHT22;8517;53.546;10.104;2023-07-31T05:54:21;17.80;99.90
11221;DHT22;8517;53.546;10.104;2023-07-31T05:56:47;17.80;99.90
11221;DHT22;8517;53.546;10.104;2023-07-31T05:59:16;17.80;99.90
11221;DHT22;8517;53.546;10.104;2023-07-31T06:01:43;17.80;99.90
11221;DHT22;8517;53.546;10.104;2023-07-31T06:04:10;17.80;99.90
11221;DHT22;8517;53.546;10.104;2023-07-31T06:06:36;17.80;99.90
11221;DHT22;8517;53.546;10.104;2023-07-31T06:09:03;17.80;99.90
11221;DHT22;8517;53.546;10.104;2023-07-31T06:11:30;17.90;99.90
11221;DHT22;8517;53.546;10.104;2023-07-31T06:13:57;17.80;99.90
11221;DHT22;8517;53.546;10.104;2023-07-31T06:16:25;17.80;99.90
11221;DHT22;8517;53.546;10.104;2023-07-31T06:18:52;17.80;99.90
11221;DHT22;8517;53.546;10.104;2023-07-31T06:21:19;17.80;99.90
11221;DHT22;8517;53.546;10.104;2023-07-31T06:23:46;17.90;99.90
11221;DHT22;8517;53.546;10.104;2023-07-31T06:26:13;17.90;99.90
11221;DHT22;8517;53.546;10.104;2023-07-31T06:28:41;17.80;99.90
11221;DHT22;8517;53.546;10.104;2023-07-31T06:31:08;17.90;99.90
11221;DHT22;8517;53.546;10.104;2023-07-31T06:33:36;17.80;99.90
11221;DHT22;8517;53.546;10.104;2023-07-31T06:36:03;17.90;99.90
11221;DHT22;8517;53.546;10.104;2023-07-31T06:38:30;17.90;99.90
11221;DHT22;8517;53.546;10.104;2023-07-31T06:40:57;17.90;99.90
11221;DHT22;8517;53.546;10.104;2023-07-31T06:43:23;17.90;99.90
11221;DHT22;8517;53.546;10.104;2023-07-31T06:45:50;17.90;99.90
11221;DHT22;8517;53.546;10.104;2023-07-31T06:48:17;17.90;99.90
11221;DHT22;8517;53.546;10.104;2023-07-31T06:50:45;17.90;99.90
11221;DHT22;8517;53.546;10.104;2023-07-31T06:53:12;17.90;99.90
11221;DHT22;8517;53.546;10.104;2023-07-31T06:55:39;17.90;99.90
11221;DHT22;8517;53.546;10.104;2023-07-31T06:58:05;18.00;99.90
11221;DHT22;8517;53.546;10.104;2023-07-31T07:00:32;18.00;99.90
11221;DHT22;8517;53.546;10.104;2023-07-31T07:02:59;18.00;99.90
11221;DHT22;8517;53.546;10.104;2023-07-31T07:05:26;18.00;99.90
11221;DHT22;8517;53.546;10.104;2023-07-31T07:07:54;18.10;99.90
11221;DHT22;8517;53.546;10.104;2023-07-31T07:10:21;18.10;99.90
11221;DHT22;8517;53.546;10.104;2023-07-31T07:12:48;18.10;99.90
11221;DHT22;8517;53.546;10.104;2023-07-31T07:15:15;18.10;99.90
11221;DHT22;8517;53.546;10.104;2023-07-31T07:17:42;18.10;99.90
11221;DHT22;8517;53.546;10.104;2023-07-31T07:20:09;18.10;99.90
11221;DHT22;8517;53.546;10.104;2023-07-31T07:22:36;18.20;99.90
11221;DHT22;8517;53.546;10.104;2023-07-31T07:25:05;18.20;99.90
11221;DHT22;8517;53.546;10.104;2023-07-31T07:27:32;18.20;99.90
11221;DHT22;8517;53.546;10.104;2023-07-31T07:29:59;18.20;99.90
11221;DHT22;8517;53.546;10.104;2023-07-31T07:32:26;18.20;99.90
11221;DHT22;8517;53.546;10.104;2023-07-31T07:34:53;18.20;99.90
11221;DHT22;8517;53.546;10.104;2023-07-31T07:37:20;18.10;99.90
11221;DHT22;8517;53.546;10.104;2023-07-31T07:39:46;18.10;99.90
11221;DHT22;8517;53.546;10.104;2023-07-31T07:42:15;18.10;99.90
11221;DHT22;8517;53.546;10.104;2023-07-31T07:44:41;18.10;99.90
11221;DHT22;8517;53.546;10.104;2023-07-31T07:47:08;18.10;99.90
11221;DHT22;8517;53.546;10.104;2023-07-31T07:49:35;18.00;99.90
11221;DHT22;8517;53.546;10.104;2023-07-31T07:52:03;18.00;99.90
11221;DHT22;8517;53.546;10.104;2023-07-31T07:54:30;17.90;99.90
11221;DHT22;8517;53.546;10.104;2023-07-31T07:56:57;18.00;99.90
11221;DHT22;8517;53.546;10.104;2023-07-31T07:59:25;17.90;99.90
11221;DHT22;8517;53.546;10.104;2023-07-31T08:01:52;18.00;99.90
11221;DHT22;8517;53.546;10.104;2023-07-31T08:04:20;18.00;99.90
11221;DHT22;8517;53.546;10.104;2023-07-31T08:06:48;18.00;99.90
11221;DHT22;8517;53.546;10.104;2023-07-31T08:09:15;18.00;99.90
11221;DHT22;8517;53.546;10.104;2023-07-31T08:11:42;18.00;99.90
11221;DHT22;8517;53.546;10.104;2023-07-31T08:14:09;18.10;99.90
11221;DHT22;8517;53.546;10.104;2023-07-31T08:16:38;18.10;99.90
11221;DHT22;8517;53.546;10.104;2023-07-31T08:19:05;18.00;99.90
11221;DHT22;8517;53.546;10.104;2023-07-31T08:21:35;18.10;99.90
11221;DHT22;8517;53.546;10.104;2023-07-31T08:24:02;18.10;99.90
11221;DHT22;8517;53.546;10.104;2023-07-31T08:26:29;18.20;99.90
11221;DHT22;8517;53.546;10.104;2023-07-31T08:28:56;18.20;99.90
11221;DHT22;8517;53.546;10.104;2023-07-31T08:31:23;18.20;99.90
11221;DHT22;8517;53.546;10.104;2023-07-31T08:33:51;18.30;99.90
11221;DHT22;8517;53.546;10.104;2023-07-31T08:36:18;18.30;99.90
11221;DHT22;8517;53.546;10.104;2023-07-31T08:38:45;18.40;99.90
11221;DHT22;8517;53.546;10.104;2023-07-31T08:41:12;18.40;99.90
11221;DHT22;8517;53.546;10.104;2023-07-31T08:43:39;18.40;99.90
11221;DHT22;8517;53.546;10.104;2023-07-31T08:46:06;18.50;99.90
11221;DHT22;8517;53.546;10.104;2023-07-31T08:48:35;18.50;99.90
11221;DHT22;8517;53.546;10.104;2023-07-31T08:51:05;18.50;99.90
11221;DHT22;8517;53.546;10.104;2023-07-31T08:53:32;18.60;99.90
11221;DHT22;8517;53.546;10.104;2023-07-31T08:55:59;18.60;99.90
11221;DHT22;8517;53.546;10.104;2023-07-31T08:58:27;18.70;99.90
11221;DHT22;8517;53.546;10.104;2023-07-31T09:00:55;18.70;99.90
11221;DHT22;8517;53.546;10.104;2023-07-31T09:03:25;18.80;99.90
11221;DHT22;8517;53.546;10.104;2023-07-31T09:05:53;18.90;99.90
11221;DHT22;8517;53.546;10.104;2023-07-31T09:08:23;19.00;99.90
11221;DHT22;8517;53.546;10.104;2023-07-31T09:10:51;19.00;99.90
11221;DHT22;8517;53.546;10.104;2023-07-31T09:13:18;19.10;99.90
11221;DHT22;8517;53.546;10.104;2023-07-31T09:15:45;19.10;99.90
11221;DHT22;8517;53.546;10.104;2023-07-31T09:18:12;19.20;99.90
11221;DHT22;8517;53.546;10.104;2023-07-31T09:20:44;19.20;99.90
11221;DHT22;8517;53.546;10.104;2023-07-31T09:23:13;19.20;99.90
11221;DHT22;8517;53.546;10.104;2023-07-31T09:25:44;19.20;99.90
11221;DHT22;8517;53.546;10.104;2023-07-31T09:28:11;19.20;99.90
11221;DHT22;8517;53.546;10.104;2023-07-31T09:30:48;19.20;99.90
11221;DHT22;8517;53.546;10.104;2023-07-31T09:33:15;19.20;99.90
11221;DHT22;8517;53.546;10.104;2023-07-31T09:35:51;19.20;99.90
11221;DHT22;8517;53.546;10.104;2023-07-31T09:38:18;19.20;99.90
11221;DHT22;8517;53.546;10.104;2023-07-31T09:40:47;19.20;99.90
11221;DHT22;8517;53.546;10.104;2023-07-31T09:43:34;19.20;99.90
11221;DHT22;8517;53.546;10.104;2023-07-31T09:46:01;19.20;99.90
11221;DHT22;8517;53.546;10.104;2023-07-31T09:48:28;19.20;99.90
11221;DHT22;8517;53.546;10.104;2023-07-31T09:50:56;19.20;99.90
11221;DHT22;8517;53.546;10.104;2023-07-31T09:53:28;19.20;99.90
11221;DHT22;8517;53.546;10.104;2023-07-31T09:55:58;19.20;99.90
11221;DHT22;8517;53.546;10.104;2023-07-31T09:58:28;19.20;99.90
11221;DHT22;8517;53.546;10.104;2023-07-31T10:00:57;19.20;99.90
11221;DHT22;8517;53.546;10.104;2023-07-31T10:03:25;19.20;99.90
11221;DHT22;8517;53.546;10.104;2023-07-31T10:05:55;19.20;99.90
11221;DHT22;8517;53.546;10.104;2023-07-31T10:08:25;19.20;99.90
11221;DHT22;8517;53.546;10.104;2023-07-31T10:10:54;19.20;99.90
11221;DHT22;8517;53.546;10.104;2023-07-31T10:13:28;19.30;99.90
11221;DHT22;8517;53.546;10.104;2023-07-31T10:15:58;19.30;99.90
11221;DHT22;8517;53.546;10.104;2023-07-31T10:18:26;19.20;99.90
11221;DHT22;8517;53.546;10.104;2023-07-31T10:20:54;19.30;99.90
11221;DHT22;8517;53.546;10.104;2023-07-31T10:23:23;19.30;99.90
11221;DHT22;8517;53.546;10.104;2023-07-31T10:25:51;19.30;99.90
11221;DHT22;8517;53.546;10.104;2023-07-31T10:28:19;19.20;99.90
11221;DHT22;8517;53.546;10.104;2023-07-31T10:30:49;19.30;99.90
11221;DHT22;8517;53.546;10.104;2023-07-31T10:33:17;19.20;99.90
11221;DHT22;8517;53.546;10.104;2023-07-31T10:35:46;19.20;99.90
11221;DHT22;8517;53.546;10.104;2023-07-31T10:38:13;19.20;99.90
11221;DHT22;8517;53.546;10.104;2023-07-31T10:40:40;19.20;99.90
11221;DHT22;8517;53.546;10.104;2023-07-31T10:43:07;19.20;99.90
11221;DHT22;8517;53.546;10.104;2023-07-31T10:45:37;19.20;99.90
11221;DHT22;8517;53.546;10.104;2023-07-31T10:48:12;19.20;99.90
11221;DHT22;8517;53.546;10.104;2023-07-31T10:50:47;19.20;99.90
11221;DHT22;8517;53.546;10.104;2023-07-31T10:53:23;19.20;99.90
11221;DHT22;8517;53.546;10.104;2023-07-31T10:55:50;19.20;99.90
11221;DHT22;8517;53.546;10.104;2023-07-31T10:58:19;19.10;99.90
11221;DHT22;8517;53.546;10.104;2023-07-31T11:00:46;19.10;99.90
11221;DHT22;8517;53.546;10.104;2023-07-31T11:03:15;19.10;99.90
11221;DHT22;8517;53.546;10.104;2023-07-31T11:05:44;19.00;99.90
11221;DHT22;8517;53.546;10.104;2023-07-31T11:08:15;19.00;99.90
11221;DHT22;8517;53.546;10.104;2023-07-31T11:10:42;19.00;99.90
11221;DHT22;8517;53.546;10.104;2023-07-31T11:13:10;19.00;99.90
11221;DHT22;8517;53.546;10.104;2023-07-31T11:15:37;19.00;99.90
11221;DHT22;8517;53.546;10.104;2023-07-31T11:18:04;19.00;99.90
11221;DHT22;8517;53.546;10.104;2023-07-31T11:20:36;19.00;99.90
11221;DHT22;8517;53.546;10.104;2023-07-31T11:23:03;19.10;99.90
11221;DHT22;8517;53.546;10.104;2023-07-31T11:25:31;19.10;99.90
11221;DHT22;8517;53.546;10.104;2023-07-31T11:28:02;19.10;99.90
11221;DHT22;8517;53.546;10.104;2023-07-31T11:30:30;19.20;99.90
11221;DHT22;8517;53.546;10.104;2023-07-31T11:32:57;19.30;99.90
11221;DHT22;8517;53.546;10.104;2023-07-31T11:35:23;19.30;99.90
11221;DHT22;8517;53.546;10.104;2023-07-31T11:37:52;19.30;99.90
11221;DHT22;8517;53.546;10.104;2023-07-31T11:40:18;19.30;99.90
11221;DHT22;8517;53.546;10.104;2023-07-31T11:42:45;19.30;99.90
11221;DHT22;8517;53.546;10.104;2023-07-31T11:45:12;19.40;99.90
11221;DHT22;8517;53.546;10.104;2023-07-31T11:47:39;19.30;99.90
11221;DHT22;8517;53.546;10.104;2023-07-31T11:50:10;19.30;99.90
11221;DHT22;8517;53.546;10.104;2023-07-31T11:52:39;19.30;99.90
11221;DHT22;8517;53.546;10.104;2023-07-31T11:55:09;19.30;99.90
11221;DHT22;8517;53.546;10.104;2023-07-31T11:57:37;19.30;99.90
11221;DHT22;8517;53.546;10.104;2023-07-31T12:00:06;19.30;99.90
11221;DHT22;8517;53.546;10.104;2023-07-31T12:02:35;19.30;99.90
11221;DHT22;8517;53.546;10.104;2023-07-31T12:05:02;19.30;99.90
11221;DHT22;8517;53.546;10.104;2023-07-31T12:07:43;19.30;99.90
11221;DHT22;8517;53.546;10.104;2023-07-31T12:10:11;19.30;99.90
11221;DHT22;8517;53.546;10.104;2023-07-31T12:12:56;19.30;99.90
11221;DHT22;8517;53.546;10.104;2023-07-31T12:15:32;19.30;99.90
11221;DHT22;8517;53.546;10.104;2023-07-31T12:17:59;19.30;99.90
11221;DHT22;8517;53.546;10.104;2023-07-31T12:20:26;19.30;99.90
11221;DHT22;8517;53.546;10.104;2023-07-31T12:22:56;19.30;99.90
11221;DHT22;8517;53.546;10.104;2023-07-31T12:25:29;19.30;99.90
11221;DHT22;8517;53.546;10.104;2023-07-31T12:27:56;19.30;99.90
11221;DHT22;8517;53.546;10.104;2023-07-31T12:30:27;19.30;99.90
11221;DHT22;8517;53.546;10.104;2023-07-31T12:32:54;19.30;99.90
11221;DHT22;8517;53.546;10.104;2023-07-31T12:35:21;19.30;99.90
11221;DHT22;8517;53.546;10.104;2023-07-31T12:37:48;19.30;99.90
11221;DHT22;8517;53.546;10.104;2023-07-31T12:40:15;19.40;99.90
11221;DHT22;8517;53.546;10.104;2023-07-31T12:42:43;19.40;99.90
11221;DHT22;8517;53.546;10.104;2023-07-31T12:45:10;19.40;99.90
11221;DHT22;8517;53.546;10.104;2023-07-31T12:47:36;19.50;99.90
11221;DHT22;8517;53.546;10.104;2023-07-31T12:50:04;19.50;99.90
11221;DHT22;8517;53.546;10.104;2023-07-31T12:52:31;19.50;99.90
11221;DHT22;8517;53.546;10.104;2023-07-31T12:54:57;19.50;99.90
11221;DHT22;8517;53.546;10.104;2023-07-31T12:57:24;19.60;99.90
11221;DHT22;8517;53.546;10.104;2023-07-31T12:59:52;19.60;99.90
11221;DHT22;8517;53.546;10.104;2023-07-31T13:02:19;19.60;99.90
11221;DHT22;8517;53.546;10.104;2023-07-31T13:04:46;19.60;99.90
11221;DHT22;8517;53.546;10.104;2023-07-31T13:07:13;19.60;99.90
11221;DHT22;8517;53.546;10.104;2023-07-31T13:09:40;19.70;99.90
11221;DHT22;8517;53.546;10.104;2023-07-31T13:12:07;19.70;99.90
11221;DHT22;8517;53.546;10.104;2023-07-31T13:14:34;19.70;99.90
11221;DHT22;8517;53.546;10.104;2023-07-31T13:17:02;19.70;99.90
11221;DHT22;8517;53.546;10.104;2023-07-31T13:19:29;19.70;99.90
11221;DHT22;8517;53.546;10.104;2023-07-31T13:21:56;19.70;99.90
11221;DHT22;8517;53.546;10.104;2023-07-31T13:24:38;19.70;99.90
11221;DHT22;8517;53.546;10.104;2023-07-31T13:27:15;19.70;99.90
11221;DHT22;8517;53.546;10.104;2023-07-31T13:29:44;19.70;99.90
11221;DHT22;8517;53.546;10.104;2023-07-31T13:32:12;19.80;99.90
11221;DHT22;8517;53.546;10.104;2023-07-31T13:34:39;19.80;99.90
11221;DHT22;8517;53.546;10.104;2023-07-31T13:37:05;19.80;99.90
11221;DHT22;8517;53.546;10.104;2023-07-31T13:39:32;19.70;99.90
11221;DHT22;8517;53.546;10.104;2023-07-31T13:41:59;19.80;99.90
11221;DHT22;8517;53.546;10.104;2023-07-31T13:44:26;19.80;99.90
11221;DHT22;8517;53.546;10.104;2023-07-31T13:46:54;19.80;99.90
11221;DHT22;8517;53.546;10.104;2023-07-31T13:49:22;19.80;99.90
11221;DHT22;8517;53.546;10.104;2023-07-31T13:51:49;19.80;99.90
11221;DHT22;8517;53.546;10.104;2023-07-31T13:54:16;19.80;99.90
11221;DHT22;8517;53.546;10.104;2023-07-31T13:56:44;19.80;99.90
11221;DHT22;8517;53.546;10.104;2023-07-31T13:59:11;19.80;99.90
11221;DHT22;8517;53.546;10.104;2023-07-31T14:01:39;19.80;99.90
11221;DHT22;8517;53.546;10.104;2023-07-31T14:04:05;19.80;99.90
11221;DHT22;8517;53.546;10.104;2023-07-31T14:06:33;19.80;99.90
11221;DHT22;8517;53.546;10.104;2023-07-31T14:09:00;19.90;99.90
11221;DHT22;8517;53.546;10.104;2023-07-31T14:11:28;19.90;99.90
11221;DHT22;8517;53.546;10.104;2023-07-31T14:13:55;19.90;99.90
11221;DHT22;8517;53.546;10.104;2023-07-31T14:16:22;19.90;99.90
11221;DHT22;8517;53.546;10.104;2023-07-31T14:18:49;19.90;99.90
11221;DHT22;8517;53.546;10.104;2023-07-31T14:21:16;19.90;99.90
11221;DHT22;8517;53.546;10.104;2023-07-31T14:23:46;19.90;99.90
11221;DHT22;8517;53.546;10.104;2023-07-31T14:26:13;20.00;99.90
11221;DHT22;8517;53.546;10.104;2023-07-31T14:28:40;20.00;99.90
11221;DHT22;8517;53.546;10.104;2023-07-31T14:31:06;20.00;99.90
11221;DHT22;8517;53.546;10.104;2023-07-31T14:33:33;20.00;99.90
11221;DHT22;8517;53.546;10.104;2023-07-31T14:36:01;20.00;99.90
11221;DHT22;8517;53.546;10.104;2023-07-31T14:38:28;20.00;99.90
11221;DHT22;8517;53.546;10.104;2023-07-31T14:40:56;20.00;99.90
11221;DHT22;8517;53.546;10.104;2023-07-31T14:43:23;20.00;99.90
11221;DHT22;8517;53.546;10.104;2023-07-31T14:45:49;19.90;99.90
11221;DHT22;8517;53.546;10.104;2023-07-31T14:48:17;19.90;99.90
11221;DHT22;8517;53.546;10.104;2023-07-31T14:50:44;19.90;99.90
11221;DHT22;8517;53.546;10.104;2023-07-31T14:53:10;19.90;99.90
11221;DHT22;8517;53.546;10.104;2023-07-31T14:55:37;19.90;99.90
11221;DHT22;8517;53.546;10.104;2023-07-31T14:58:05;19.90;99.90
11221;DHT22;8517;53.546;10.104;2023-07-31T15:00:32;19.90;99.90
11221;DHT22;8517;53.546;10.104;2023-07-31T15:02:59;19.90;99.90
11221;DHT22;8517;53.546;10.104;2023-07-31T15:05:25;19.90;99.90
11221;DHT22;8517;53.546;10.104;2023-07-31T15:07:52;19.90;99.90
11221;DHT22;8517;53.546;10.104;2023-07-31T15:10:19;19.90;99.90
11221;DHT22;8517;53.546;10.104;2023-07-31T15:12:46;19.80;99.90
11221;DHT22;8517;53.546;10.104;2023-07-31T15:15:15;19.90;99.90
11221;DHT22;8517;53.546;10.104;2023-07-31T15:17:42;19.80;99.90
11221;DHT22;8517;53.546;10.104;2023-07-31T15:20:10;19.80;99.90
11221;DHT22;8517;53.546;10.104;2023-07-31T15:22:37;19.80;99.90
11221;DHT22;8517;53.546;10.104;2023-07-31T15:25:05;19.80;99.90
11221;DHT22;8517;53.546;10.104;2023-07-31T15:27:32;19.80;99.90
11221;DHT22;8517;53.546;10.104;2023-07-31T15:29:58;19.80;99.90
11221;DHT22;8517;53.546;10.104;2023-07-31T15:32:26;19.80;99.90